Marshfield, WI

5:22 PM CDT on October 31, 2014 (GMT -0500)
Alexander Field South Wood County | Change Station
CLOSE
Current Station
Airport
Location: Wisconsin Rapids,
Elevation: 1020 ft
Nearby Weather Stations

Elev 1020 ft 44.36 °N, 89.84 °W | Updated 28 minutes ago

Overcast
Overcast
37 °F
Feels Like 26 °F
N
22
Wind Variable Wind from North
Gusts 29 mph

Today
High -- | Low -- °F
--% Chance of Precip.
Yesterday
High -- | Low -- °F
Precip. -- in
7:37 AM 5:50 PM
First Quarter, 59% visible
Pressure 30.46 in
Visibility 10.0 miles
Clouds Few 4700 ft
Windchill 26 °F
Dew Point 16 °F
Humidity 42%
Rainfall 0.00 in
Snow Depth Not available.
UV 0 out of 12
Pollen .10 out of 12
Air Quality Not available.
Flu Activity Not available.
METAR KISW 312154Z AUTO 36019G25KT 10SM FEW047 03/M09 A3042 RMK AO2 PK WND 36026/2103 SLP314 T00281089

More Conditions Fewer Conditions

Pressure 30.46 in
Visibility 10.0 miles
Clouds Few 4700 ft
Windchill 26 °F
Dew Point 16 °F
Humidity 42%
Rainfall 0.00 in
Snow Depth Not available.
UV 0 out of 12
Pollen .10 out of 12
Air Quality Not available.
Flu Activity Not available.
METAR KISW 312154Z AUTO 36019G25KT 10SM FEW047 03/M09 A3042 RMK AO2 PK WND 36026/2103 SLP314 T00281089

More Conditions Fewer Conditions

10-Day Weather Forecast

Almanac

Astronomy

Oct. 31, 2014 Rise Set
Actual Time
Civil Twilight
Nautical Twilight
Astronomical Twilight
Moon
Length of Visible Light
Length of Day
Tomorrow will be .
, % of the Moon is Illuminated

Today's Extremes

State Highs State Lows

Community

WunderPhotos

Upload Photos

1,766,757 photos uploaded!

WunderBlogs® & News

Nearby

Air Quality

  Air Quality AQ Index Pollutant
Not available.

Snow Depth

Station Depth Elevation

Earthquake Activity

City Distance Mag. Time & Date
Minimum magnitude displayed is 2.5.

Coastal Water Temperatures

Place Temperature

Nearby Weather Stations